createdAt,value
2019-05-10T00:00:45.453Z,3.96
2019-05-10T00:05:51.927Z,3.97
2019-05-10T00:10:58.833Z,4.27
2019-05-10T00:16:05.732Z,4.18
2019-05-10T00:21:12.412Z,4.01
2019-05-10T00:26:19.308Z,3.92
2019-05-10T00:31:26.123Z,3.99
2019-05-10T00:36:32.694Z,4.45
2019-05-10T00:41:39.615Z,4.54
2019-05-10T00:46:46.177Z,4.25
2019-05-10T00:51:53.291Z,4.56
2019-05-10T00:56:59.787Z,4.56
2019-05-10T01:02:06.879Z,5.01
2019-05-10T01:07:13.659Z,4.79
2019-05-10T01:12:20.259Z,5.19
2019-05-10T01:17:26.736Z,5.38
2019-05-10T01:22:33.328Z,5.33
2019-05-10T01:27:39.827Z,5.88
2019-05-10T01:32:46.442Z,5.85
2019-05-10T01:37:53.092Z,6.16
2019-05-10T01:42:59.667Z,6.62
2019-05-10T01:48:06.077Z,6.38
2019-05-10T01:53:12.649Z,7.22
2019-05-10T01:58:19.230Z,7.82
2019-05-10T02:03:25.823Z,7.89
2019-05-10T02:08:32.416Z,8.28
2019-05-10T02:13:38.981Z,9.13
2019-05-10T02:18:45.723Z,9.02
2019-05-10T02:23:52.408Z,9.32
2019-05-10T02:28:59.140Z,10.32
2019-05-10T02:34:06.031Z,11.35
2019-05-10T02:39:12.767Z,10.48
2019-05-10T02:44:19.473Z,10.55
2019-05-10T02:49:26.295Z,10.56
2019-05-10T02:54:32.956Z,10.78
2019-05-10T02:59:39.467Z,11.12
2019-05-10T03:04:46.264Z,11.20
2019-05-10T03:09:52.926Z,11.34
2019-05-10T03:14:59.628Z,11.47
2019-05-10T03:20:07.336Z,11.59
2019-05-10T03:25:14.460Z,11.90
2019-05-10T03:30:21.131Z,11.53
2019-05-10T03:35:27.821Z,11.82
2019-05-10T03:40:34.616Z,11.41
2019-05-10T03:45:41.324Z,11.19
2019-05-10T03:50:48.122Z,11.50
2019-05-10T03:55:54.898Z,11.68
2019-05-10T04:01:01.794Z,11.74
2019-05-10T04:06:08.791Z,11.89
2019-05-10T04:11:15.710Z,12.46
2019-05-10T04:16:22.382Z,12.16
2019-05-10T04:21:29.159Z,12.09
2019-05-10T04:26:35.851Z,13.47
2019-05-10T04:31:42.706Z,13.97
2019-05-10T04:36:49.550Z,14.35
2019-05-10T04:41:56.230Z,14.20
2019-05-10T04:47:02.919Z,16.77
2019-05-10T04:52:10.729Z,16.64
2019-05-10T04:57:17.964Z,16.46
2019-05-10T05:02:24.652Z,17.04
2019-05-10T05:07:31.489Z,17.21
2019-05-10T05:12:38.163Z,16.53
2019-05-10T05:17:45.595Z,16.54
2019-05-10T05:22:52.749Z,16.93
2019-05-10T05:28:08.091Z,16.81
2019-05-10T05:33:05.554Z,17.07
2019-05-10T05:38:12.246Z,16.56
2019-05-10T05:43:18.908Z,15.93
2019-05-10T05:48:39.475Z,16.23
2019-05-10T05:53:35.792Z,16.60
2019-05-10T05:58:43.779Z,16.57
2019-05-10T06:03:41.455Z,17.19
2019-05-10T06:08:47.990Z,16.17
2019-05-10T06:13:54.795Z,17.94
2019-05-10T06:19:01.581Z,17.28
2019-05-10T06:24:13.305Z,17.61
2019-05-10T06:29:17.566Z,17.54
2019-05-10T06:34:16.087Z,18.08
2019-05-10T06:39:22.757Z,19.71
2019-05-10T06:44:31.136Z,20.10
2019-05-10T06:49:29.727Z,21.78
2019-05-10T06:54:36.291Z,22.18
2019-05-10T06:59:42.955Z,20.44
2019-05-10T07:04:51.078Z,17.53
2019-05-10T07:10:10.076Z,15.85
2019-05-10T07:15:05.486Z,14.99
2019-05-10T07:20:12.392Z,9.83
2019-05-10T07:25:18.870Z,8.52
2019-05-10T07:30:25.437Z,8.93
2019-05-10T07:35:36.681Z,9.41
2019-05-10T07:40:35.268Z,9.72
2019-05-10T07:45:41.841Z,10.57
2019-05-10T07:50:51.663Z,12.81
2019-05-10T07:55:48.474Z,14.50
2019-05-10T08:00:56.217Z,11.66
2019-05-10T08:06:03.197Z,10.83
2019-05-10T08:11:09.825Z,11.50
2019-05-10T08:16:21.840Z,12.95
2019-05-10T08:21:23.852Z,11.20
2019-05-10T08:26:24.692Z,12.84
2019-05-10T08:31:40.113Z,11.35
2019-05-10T08:36:45.843Z,10.55
2019-05-10T08:41:45.753Z,11.06
2019-05-10T08:46:53.237Z,12.26
2019-05-10T08:51:59.862Z,12.24
2019-05-10T08:57:06.585Z,11.85
2019-05-10T09:02:14.647Z,11.43
2019-05-10T09:07:23.247Z,11.53
2019-05-10T09:12:32.817Z,10.92
2019-05-10T09:17:42.591Z,10.07
2019-05-10T09:22:52.639Z,8.54
2019-05-10T09:28:02.454Z,8.28
2019-05-10T09:33:09.021Z,8.07
2019-05-10T09:38:07.031Z,9.26
2019-05-10T09:43:14.952Z,8.86
2019-05-10T09:48:22.832Z,8.25
2019-05-10T09:53:30.693Z,6.52
2019-05-10T09:58:38.641Z,5.36
2019-05-10T10:03:47.522Z,5.21
2019-05-10T10:08:57.733Z,4.76
2019-05-10T10:13:59.894Z,4.10
2019-05-10T10:18:58.385Z,3.98
2019-05-10T10:24:12.667Z,3.92
2019-05-10T10:29:11.792Z,4.10
2019-05-10T10:34:18.451Z,4.79
2019-05-10T10:39:27.609Z,4.62
2019-05-10T10:44:36.918Z,3.99
2019-05-10T10:49:43.749Z,4.18
2019-05-10T10:54:50.463Z,5.30
2019-05-10T10:59:57.525Z,5.21
2019-05-10T11:05:04.196Z,6.76
2019-05-10T11:10:18.018Z,3.47
2019-05-10T11:15:16.390Z,2.86
2019-05-10T11:20:18.819Z,3.03
2019-05-10T11:25:25.475Z,5.78
2019-05-10T11:30:32.694Z,3.08
2019-05-10T11:35:41.593Z,3.37
2019-05-10T11:40:48.556Z,3.43
2019-05-10T11:45:55.135Z,3.54
2019-05-10T11:51:05.636Z,2.94
2019-05-10T11:56:13.624Z,2.98
2019-05-10T12:01:17.691Z,2.92
2019-05-10T12:06:16.096Z,3.04
2019-05-10T12:11:32.973Z,2.87
2019-05-10T12:16:33.281Z,3.59
2019-05-10T12:21:33.125Z,13.12
2019-05-10T12:27:17.451Z,3.79
2019-05-10T12:31:52.151Z,3.30
2019-05-10T12:36:52.403Z,3.17
2019-05-10T12:41:58.986Z,2.82
2019-05-10T12:47:08.037Z,2.15
2019-05-10T12:52:16.218Z,2.07
2019-05-10T12:57:22.909Z,2.30
2019-05-10T13:02:31.717Z,2.41
2019-05-10T13:07:39.807Z,2.25
2019-05-10T13:12:47.472Z,2.07
2019-05-10T13:17:54.921Z,1.75
2019-05-10T13:23:01.485Z,1.93
2019-05-10T13:28:11.328Z,2.17
2019-05-10T13:33:08.792Z,2.23
2019-05-10T13:38:15.470Z,2.31
2019-05-10T13:43:26.624Z,2.41
2019-05-10T13:48:26.292Z,1.99
2019-05-10T13:53:33.339Z,4.16
2019-05-10T13:58:39.927Z,2.54
2019-05-10T14:03:53.650Z,2.28
2019-05-10T14:08:53.056Z,2.18
2019-05-10T14:13:59.681Z,2.48
2019-05-10T14:19:07.136Z,2.75
2019-05-10T14:24:15.293Z,3.42
2019-05-10T14:29:33.343Z,3.26
2019-05-10T14:34:29.097Z,3.52
2019-05-10T14:39:35.708Z,2.99
2019-05-10T14:44:42.222Z,3.66
2019-05-10T14:49:48.826Z,3.19
2019-05-10T14:54:56.784Z,3.57
2019-05-10T15:00:04.796Z,3.11
2019-05-10T15:05:15.660Z,2.75
2019-05-10T15:10:13.334Z,5.12
2019-05-10T15:15:20.390Z,3.06
2019-05-10T15:20:30.600Z,2.51
2019-05-10T15:25:27.917Z,2.61
2019-05-10T15:30:39.171Z,2.82
2019-05-10T15:35:45.805Z,3.32
2019-05-10T15:40:47.399Z,2.77
2019-05-10T15:45:57.029Z,2.82
2019-05-10T15:51:03.674Z,2.82
2019-05-10T15:56:10.230Z,2.73
2019-05-10T16:01:26.066Z,2.34
2019-05-10T16:06:23.628Z,3.40
2019-05-10T16:11:30.374Z,2.66
2019-05-10T16:16:40.608Z,3.44
2019-05-10T16:21:37.147Z,2.74
2019-05-10T16:26:43.781Z,2.78
2019-05-10T16:31:50.838Z,2.57
2019-05-10T16:36:57.431Z,2.60
2019-05-10T16:42:04.672Z,3.02
2019-05-10T16:47:11.522Z,2.98
2019-05-10T16:52:25.841Z,3.19
2019-05-10T16:57:25.231Z,3.08
2019-05-10T17:02:36.604Z,2.82
2019-05-10T17:07:38.285Z,2.88
2019-05-10T17:12:46.004Z,2.79
2019-05-10T17:17:52.551Z,3.82
2019-05-10T17:23:08.180Z,3.39
2019-05-10T17:28:05.590Z,2.91
2019-05-10T17:33:12.627Z,2.97
2019-05-10T17:38:19.280Z,3.71
2019-05-10T17:43:26.359Z,3.24
2019-05-10T17:48:32.937Z,3.11
2019-05-10T17:53:39.959Z,3.01
2019-05-10T17:58:46.955Z,3.15
2019-05-10T18:03:53.628Z,2.99
2019-05-10T18:09:00.323Z,3.07
2019-05-10T18:14:07.749Z,3.14
2019-05-10T18:19:08.879Z,3.50
2019-05-10T18:24:15.936Z,3.64
2019-05-10T18:29:22.568Z,3.33
2019-05-10T18:34:33.077Z,3.59
2019-05-10T18:39:32.068Z,3.42
2019-05-10T18:44:38.748Z,3.45
2019-05-10T18:49:45.511Z,3.33
2019-05-10T18:54:53.640Z,3.41
2019-05-10T19:00:01.595Z,3.52
2019-05-10T19:05:08.522Z,3.72
2019-05-10T19:10:15.148Z,3.73
2019-05-10T19:15:21.957Z,3.53
2019-05-10T19:20:28.681Z,3.65
2019-05-10T19:25:37.697Z,3.82
2019-05-10T19:30:44.667Z,3.97
2019-05-10T19:35:51.484Z,4.02
2019-05-10T19:40:58.069Z,4.23
2019-05-10T19:46:04.857Z,4.12
2019-05-10T19:51:11.701Z,3.93
2019-05-10T19:56:18.525Z,4.15
2019-05-10T20:01:27.031Z,4.23
2019-05-10T20:06:34.020Z,3.96
2019-05-10T20:11:40.765Z,4.42
2019-05-10T20:16:52.803Z,3.83
2019-05-10T20:21:50.315Z,4.03
2019-05-10T20:26:56.820Z,4.67
2019-05-10T20:32:03.296Z,4.04
2019-05-10T20:37:09.810Z,4.18
2019-05-10T20:42:16.839Z,4.45
2019-05-10T20:47:24.187Z,3.77
2019-05-10T20:52:30.714Z,4.83
2019-05-10T20:57:37.755Z,4.33
2019-05-10T21:02:45.647Z,4.51
2019-05-10T21:07:52.096Z,4.67
2019-05-10T21:12:58.579Z,4.47
2019-05-10T21:18:05.564Z,4.78
2019-05-10T21:23:12.260Z,4.90
2019-05-10T21:28:18.960Z,4.60
2019-05-10T21:33:25.348Z,5.00
2019-05-10T21:38:33.434Z,5.08
2019-05-10T21:43:41.070Z,5.36
2019-05-10T21:48:47.800Z,5.56
2019-05-10T21:53:54.256Z,5.38
2019-05-10T21:59:01.368Z,5.27
2019-05-10T22:04:07.908Z,5.36
2019-05-10T22:09:14.652Z,5.41
2019-05-10T22:14:21.421Z,4.95
2019-05-10T22:19:28.105Z,5.21
2019-05-10T22:24:34.694Z,5.40
2019-05-10T22:29:41.805Z,5.05
2019-05-10T22:34:48.392Z,5.20
2019-05-10T22:39:55.076Z,6.73
2019-05-10T22:45:01.797Z,5.44
2019-05-10T22:50:08.847Z,5.56
2019-05-10T22:55:15.413Z,5.34
2019-05-10T23:00:22.256Z,5.88
2019-05-10T23:05:28.736Z,5.47
2019-05-10T23:10:35.952Z,5.15
2019-05-10T23:15:42.560Z,5.40
2019-05-10T23:20:49.616Z,5.63
2019-05-10T23:25:56.327Z,5.92
2019-05-10T23:31:03.323Z,8.54
2019-05-10T23:36:10.000Z,5.82
2019-05-10T23:41:16.823Z,5.95
2019-05-10T23:46:23.607Z,5.88
2019-05-10T23:51:30.399Z,5.54
2019-05-10T23:56:36.879Z,5.66
